Time;durP1;ratioP1;P1;durP2;ratioP2;P2;SDS_P1;SDS_P2;PMS_P1;PMS_P2;Temp;Humidity;BMP_temperature;BMP_pressure;BME280_temperature;BME280_humidity;BME280_pressure;Samples;Min_cycle;Max_cycle;Signal;HPM_P1;HPM_P2
2021/10/13 00:02:38;0.00;0.00;0.62;0.00;0.00;0.62;1.20;0.70;;;26.20;28.50;;;;;;2253189;61;20492;-66
2021/10/13 00:05:24;0.00;0.00;0.62;0.00;0.00;0.62;1.30;0.70;;;26.20;28.50;;;;;;2253267;61;20720;-66
2021/10/13 00:08:09;0.00;0.00;0.62;0.00;0.00;0.62;1.23;0.70;;;26.10;28.50;;;;;;2253586;61;20403;-67
2021/10/13 00:10:53;0.00;0.00;0.62;0.00;0.00;0.62;1.30;0.70;;;26.10;28.50;;;;;;2253234;61;20398;-67
2021/10/13 00:13:38;0.00;0.00;0.62;0.00;0.00;0.62;1.30;0.70;;;26.20;28.60;;;;;;2253658;61;20581;-66
2021/10/13 00:16:22;0.00;0.00;0.62;0.00;0.00;0.62;1.83;0.70;;;26.20;28.60;;;;;;2253054;61;20363;-67
2021/10/13 00:19:07;0.00;0.00;0.62;0.00;0.00;0.62;1.70;1.00;;;26.10;28.50;;;;;;2252920;61;20721;-66
2021/10/13 00:21:53;0.00;0.00;0.62;0.00;0.00;0.62;1.30;0.80;;;26.10;28.50;;;;;;2253693;61;20443;-66
2021/10/13 00:24:37;0.00;0.00;0.62;0.00;0.00;0.62;1.30;0.70;;;26.10;28.60;;;;;;2287148;61;20366;-66
2021/10/13 00:27:22;0.00;0.00;0.62;0.00;0.00;0.62;1.30;0.80;;;26.10;28.60;;;;;;2258914;61;20422;-66
2021/10/13 00:30:07;0.00;0.00;0.62;0.00;0.00;0.62;1.30;0.73;;;26.10;28.50;;;;;;2255903;61;20375;-66
2021/10/13 00:32:52;0.00;0.00;0.62;0.00;0.00;0.62;1.30;0.80;;;26.10;28.60;;;;;;2257018;61;20362;-66
2021/10/13 00:35:36;0.00;0.00;0.62;0.00;0.00;0.62;1.50;0.60;;;26.10;28.60;;;;;;2431681;45;20375;-66
2021/10/13 00:38:22;0.00;0.00;0.62;0.00;0.00;0.62;1.40;0.77;;;26.10;28.60;;;;;;2255210;61;20406;-65
2021/10/13 00:41:07;0.00;0.00;0.62;0.00;0.00;0.62;1.30;0.77;;;26.10;28.60;;;;;;2304958;53;20589;-65
2021/10/13 00:43:51;0.00;0.00;0.62;0.00;0.00;0.62;1.20;0.60;;;26.10;28.60;;;;;;2257572;61;20421;-66
2021/10/13 00:46:36;0.00;0.00;0.62;0.00;0.00;0.62;1.20;0.70;;;26.10;28.60;;;;;;2256619;61;20520;-65
2021/10/13 00:49:20;0.00;0.00;0.62;0.00;0.00;0.62;1.20;0.70;;;26.10;28.60;;;;;;2257127;61;20449;-67
2021/10/13 00:52:07;0.00;0.00;0.62;0.00;0.00;0.62;1.30;0.83;;;26.10;28.60;;;;;;2254458;61;20359;-64
2021/10/13 00:54:53;0.00;0.00;0.62;0.00;0.00;0.62;1.30;0.70;;;26.00;28.50;;;;;;2255596;61;20374;-64
2021/10/13 00:57:37;0.00;0.00;0.62;0.00;0.00;0.62;1.40;0.80;;;26.00;28.60;;;;;;2257249;61;20386;-68
2021/10/13 01:00:24;0.00;0.00;0.62;0.00;0.00;0.62;1.60;0.80;;;26.00;28.60;;;;;;2257116;61;20358;-63
2021/10/13 01:03:16;0.00;0.00;0.62;0.00;0.00;0.62;2.73;0.90;;;26.00;28.60;;;;;;2256734;61;20383;-63
2021/10/13 01:06:11;0.00;0.00;0.62;0.00;0.00;0.62;1.50;0.80;;;26.10;28.60;;;;;;2257465;61;20406;-63
2021/10/13 01:09:05;0.00;0.00;0.62;0.00;0.00;0.62;1.30;0.70;;;26.00;28.50;;;;;;2257106;61;20390;-67
2021/10/13 01:12:20;0.00;0.00;0.62;0.00;0.00;0.62;7.63;1.70;;;26.00;28.50;;;;;;2258774;61;20586;-62
2021/10/13 01:15:15;0.00;0.00;0.62;0.00;0.00;0.62;1.40;0.97;;;26.00;28.50;;;;;;2260568;61;20413;-62
2021/10/13 01:18:10;0.00;0.00;0.62;0.00;0.00;0.62;1.50;0.90;;;26.00;28.50;;;;;;2259796;61;20414;-62
2021/10/13 01:21:11;0.00;0.00;0.62;0.00;0.00;0.62;1.70;1.33;;;26.00;28.40;;;;;;2261246;61;20404;-62
2021/10/13 01:24:17;0.00;0.00;0.62;0.00;0.00;0.62;1.60;1.07;;;26.00;28.30;;;;;;2261341;61;20517;-62
2021/10/13 01:27:33;0.00;0.00;0.62;0.00;0.00;0.62;2.10;1.27;;;25.90;28.20;;;;;;2261049;61;20350;-62
2021/10/13 01:30:19;0.00;0.00;0.62;0.00;0.00;0.62;3.37;1.43;;;26.00;28.20;;;;;;2261799;61;20365;-62
2021/10/13 01:33:11;0.00;0.00;0.62;0.00;0.00;0.62;1.90;1.13;;;25.90;28.00;;;;;;2260629;61;20461;-62
2021/10/13 01:36:02;0.00;0.00;0.62;0.00;0.00;0.62;1.97;1.17;;;25.90;28.00;;;;;;2261370;61;20734;-62
2021/10/13 01:38:51;0.00;0.00;0.62;0.00;0.00;0.62;4.80;1.50;;;25.80;27.90;;;;;;2261554;61;20417;-62
2021/10/13 01:41:40;0.00;0.00;0.62;0.00;0.00;0.62;1.57;1.20;;;25.80;27.90;;;;;;2261803;61;20757;-62
2021/10/13 01:44:30;0.00;0.00;0.62;0.00;0.00;0.62;2.07;1.50;;;25.80;27.90;;;;;;2262202;61;20406;-62
2021/10/13 01:47:18;0.00;0.00;0.62;0.00;0.00;0.62;2.00;1.50;;;25.80;27.80;;;;;;2261374;61;20393;-62
2021/10/13 01:50:05;0.00;0.00;0.62;0.00;0.00;0.62;2.37;1.60;;;25.80;27.80;;;;;;2262193;61;20734;-62
2021/10/13 01:52:51;0.00;0.00;0.62;0.00;0.00;0.62;3.30;1.77;;;25.70;27.80;;;;;;2262214;61;20741;-62
2021/10/13 01:55:36;0.00;0.00;0.62;0.00;0.00;0.62;1.90;1.40;;;25.70;27.80;;;;;;2261354;61;20366;-62
2021/10/13 01:58:22;0.00;0.00;0.62;0.00;0.00;0.62;2.17;1.40;;;25.70;27.80;;;;;;2262158;61;20389;-62
2021/10/13 02:01:11;0.00;0.00;0.62;0.00;0.00;0.62;1.83;1.43;;;25.70;27.80;;;;;;2261842;61;20654;-62
2021/10/13 02:04:00;0.00;0.00;0.62;0.00;0.00;0.62;2.20;1.60;;;25.60;27.70;;;;;;2261679;61;20393;-62
2021/10/13 02:06:48;0.00;0.00;0.62;0.00;0.00;0.62;1.90;1.57;;;25.60;27.70;;;;;;2261948;61;20357;-62
2021/10/13 02:09:33;0.00;0.00;0.62;0.00;0.00;0.62;2.13;1.47;;;25.50;27.70;;;;;;2261464;61;20401;-63
2021/10/13 02:12:18;0.00;0.00;0.62;0.00;0.00;0.62;1.93;1.63;;;25.50;27.70;;;;;;2262044;61;20366;-63
2021/10/13 02:15:05;0.00;0.00;0.62;0.00;0.00;0.62;2.07;1.73;;;25.50;27.70;;;;;;2262057;61;20620;-63
2021/10/13 02:17:53;0.00;0.00;0.62;0.00;0.00;0.62;2.17;1.67;;;25.50;27.70;;;;;;2261454;61;20386;-63
2021/10/13 02:20:38;0.00;0.00;0.62;0.00;0.00;0.62;2.70;1.80;;;25.40;27.70;;;;;;2261922;61;20366;-63
2021/10/13 02:23:25;0.00;0.00;0.62;0.00;0.00;0.62;2.90;1.90;;;25.40;27.70;;;;;;2261805;61;20643;-63
2021/10/13 02:26:18;0.00;0.00;0.62;0.00;0.00;0.62;3.13;1.50;;;25.40;27.70;;;;;;2261547;61;20361;-63
2021/10/13 02:29:07;0.00;0.00;0.62;0.00;0.00;0.62;2.13;1.70;;;25.40;27.70;;;;;;2261959;61;20377;-63
2021/10/13 02:31:52;0.00;0.00;0.62;0.00;0.00;0.62;2.00;1.77;;;25.30;27.70;;;;;;2261284;61;20603;-63
2021/10/13 02:34:42;0.00;0.00;0.62;0.00;0.00;0.62;2.20;1.63;;;25.30;27.70;;;;;;2258771;61;20726;-63
2021/10/13 02:37:27;0.00;0.00;0.62;0.00;0.00;0.62;2.50;1.50;;;25.20;27.60;;;;;;2261950;61;20432;-63
2021/10/13 02:40:12;0.00;0.00;0.62;0.00;0.00;0.62;2.73;1.90;;;25.20;27.60;;;;;;2261250;61;20666;-63
2021/10/13 02:42:57;0.00;0.00;0.62;0.00;0.00;0.62;1.97;1.73;;;25.20;27.60;;;;;;2261805;61;20423;-63
2021/10/13 02:45:49;0.00;0.00;0.62;0.00;0.00;0.62;2.30;1.87;;;25.20;27.60;;;;;;2261817;61;20365;-62
2021/10/13 02:48:35;0.00;0.00;0.62;0.00;0.00;0.62;2.07;1.43;;;25.10;27.60;;;;;;2261720;61;20377;-62
2021/10/13 02:51:33;0.00;0.00;0.62;0.00;0.00;0.62;2.60;1.70;;;25.10;27.60;;;;;;2262018;61;20416;-63
2021/10/13 02:54:24;0.00;0.00;0.62;0.00;0.00;0.62;1.83;1.63;;;25.10;27.60;;;;;;2261168;61;20377;-63
2021/10/13 02:57:10;0.00;0.00;0.62;0.00;0.00;0.62;2.20;1.60;;;25.00;27.60;;;;;;2261678;61;20389;-62
2021/10/13 02:59:58;0.00;0.00;0.62;0.00;0.00;0.62;1.97;1.47;;;25.00;27.60;;;;;;2262070;61;20441;-62
2021/10/13 03:02:55;0.00;0.00;0.62;0.00;0.00;0.62;2.80;1.87;;;25.00;27.60;;;;;;2261515;61;20417;-63
2021/10/13 03:05:43;0.00;0.00;0.62;0.00;0.00;0.62;2.40;1.70;;;25.00;27.70;;;;;;2261782;61;20813;-63
2021/10/13 03:08:32;0.00;0.00;0.62;0.00;0.00;0.62;1.90;1.70;;;25.00;27.70;;;;;;2261361;61;20417;-62
2021/10/13 03:11:19;0.00;0.00;0.62;0.00;0.00;0.62;2.20;1.27;;;24.90;27.60;;;;;;2261756;61;20586;-62
2021/10/13 03:14:06;0.00;0.00;0.62;0.00;0.00;0.62;2.47;1.70;;;24.90;27.70;;;;;;2262037;61;20572;-62
2021/10/13 03:16:53;0.00;0.00;0.62;0.00;0.00;0.62;1.90;1.50;;;24.90;27.70;;;;;;2261094;61;20446;-62
2021/10/13 03:19:39;0.00;0.00;0.62;0.00;0.00;0.62;2.20;1.50;;;24.80;27.60;;;;;;2261730;61;20366;-63
2021/10/13 03:22:25;0.00;0.00;0.62;0.00;0.00;0.62;2.53;1.73;;;24.80;27.70;;;;;;2261743;61;20358;-62
2021/10/13 03:25:11;0.00;0.00;0.62;0.00;0.00;0.62;1.80;1.50;;;24.80;27.70;;;;;;2261312;61;20491;-63
2021/10/13 03:27:55;0.00;0.00;0.62;0.00;0.00;0.62;1.70;1.40;;;24.80;27.70;;;;;;2261808;61;20501;-63
2021/10/13 03:30:44;0.00;0.00;0.62;0.00;0.00;0.62;2.13;1.67;;;24.80;27.70;;;;;;2261475;61;20396;-63
2021/10/13 03:33:28;0.00;0.00;0.62;0.00;0.00;0.62;2.30;1.50;;;24.70;27.70;;;;;;2261646;61;20365;-63
2021/10/13 03:36:13;0.00;0.00;0.62;0.00;0.00;0.62;2.30;1.57;;;24.70;27.70;;;;;;2261883;61;20369;-63
2021/10/13 03:38:58;0.00;0.00;0.62;0.00;0.00;0.62;2.13;1.60;;;24.70;27.70;;;;;;2261036;61;20377;-61
2021/10/13 03:41:45;0.00;0.00;0.62;0.00;0.00;0.62;2.07;1.73;;;24.70;27.70;;;;;;2261667;61;20362;-62
2021/10/13 03:44:29;0.00;0.00;0.62;0.00;0.00;0.62;2.10;1.67;;;24.60;27.70;;;;;;2261791;61;20385;-63
2021/10/13 03:47:14;0.00;0.00;0.62;0.00;0.00;0.62;2.00;1.50;;;24.60;27.70;;;;;;2261086;61;20744;-63
2021/10/13 03:49:58;0.00;0.00;0.62;0.00;0.00;0.62;1.90;1.50;;;24.60;27.70;;;;;;2261783;61;20447;-61
2021/10/13 03:52:44;0.00;0.00;0.62;0.00;0.00;0.62;2.00;1.50;;;24.60;27.70;;;;;;2261467;61;20757;-63
2021/10/13 03:55:29;0.00;0.00;0.62;0.00;0.00;0.62;2.23;1.70;;;24.60;27.70;;;;;;2261394;61;20448;-63
2021/10/13 03:58:14;0.00;0.00;0.62;0.00;0.00;0.62;1.70;1.40;;;24.50;27.60;;;;;;2261846;61;20393;-63
2021/10/13 04:00:59;0.00;0.00;0.62;0.00;0.00;0.62;2.20;1.60;;;24.50;27.70;;;;;;2260783;61;20365;-63
2021/10/13 04:03:43;0.00;0.00;0.62;0.00;0.00;0.62;1.70;1.37;;;24.50;27.70;;;;;;2261543;61;20645;-63
2021/10/13 04:06:28;0.00;0.00;0.62;0.00;0.00;0.62;1.90;1.70;;;24.50;28.20;;;;;;2261702;61;20362;-62
2021/10/13 04:09:12;0.00;0.00;0.62;0.00;0.00;0.62;1.60;1.30;;;24.50;27.70;;;;;;2261214;61;20774;-63
2021/10/13 04:11:57;0.00;0.00;0.62;0.00;0.00;0.62;2.40;2.10;;;24.50;27.70;;;;;;2261707;61;20409;-62
2021/10/13 04:14:43;0.00;0.00;0.62;0.00;0.00;0.62;1.83;1.40;;;24.50;27.70;;;;;;2261412;61;20354;-63
2021/10/13 04:17:27;0.00;0.00;0.62;0.00;0.00;0.62;1.73;1.40;;;24.40;27.70;;;;;;2261599;61;20390;-63
2021/10/13 04:20:12;0.00;0.00;0.62;0.00;0.00;0.62;2.20;1.53;;;24.40;27.70;;;;;;2261759;61;20366;-62
2021/10/13 04:22:57;0.00;0.00;0.62;0.00;0.00;0.62;1.67;1.37;;;24.40;27.70;;;;;;2260842;61;20380;-62
2021/10/13 04:25:42;0.00;0.00;0.62;0.00;0.00;0.62;2.20;1.37;;;24.40;27.70;;;;;;2261511;61;20427;-62
2021/10/13 04:28:26;0.00;0.00;0.62;0.00;0.00;0.62;1.80;1.40;;;24.30;27.70;;;;;;2261750;61;20382;-63
2021/10/13 04:31:14;0.00;0.00;0.62;0.00;0.00;0.62;2.07;1.50;;;24.30;27.60;;;;;;2260960;61;20577;-62
2021/10/13 04:33:59;0.00;0.00;0.62;0.00;0.00;0.62;1.83;1.50;;;24.30;27.60;;;;;;2261467;61;20445;-63
2021/10/13 04:36:44;0.00;0.00;0.62;0.00;0.00;0.62;1.90;1.43;;;24.30;27.60;;;;;;2261372;61;20366;-62
2021/10/13 04:39:28;0.00;0.00;0.62;0.00;0.00;0.62;1.53;1.20;;;24.20;27.60;;;;;;2261217;61;20377;-62
2021/10/13 04:42:13;0.00;0.00;0.62;0.00;0.00;0.62;3.20;1.50;;;24.20;27.60;;;;;;2261646;61;20362;-63
2021/10/13 04:44:57;0.00;0.00;0.62;0.00;0.00;0.62;1.93;1.33;;;24.20;27.60;;;;;;2260940;61;20482;-63
2021/10/13 04:47:43;0.00;0.00;0.62;0.00;0.00;0.62;2.10;1.63;;;24.20;27.60;;;;;;2261418;61;20386;-63
2021/10/13 04:50:28;0.00;0.00;0.62;0.00;0.00;0.62;1.80;1.40;;;24.20;27.60;;;;;;2261729;61;20432;-63
2021/10/13 04:53:13;0.00;0.00;0.62;0.00;0.00;0.62;2.40;1.60;;;24.20;27.60;;;;;;2260887;61;20359;-63
2021/10/13 04:55:57;0.00;0.00;0.62;0.00;0.00;0.62;2.43;1.40;;;24.20;27.70;;;;;;2261416;61;20392;-62
2021/10/13 04:58:42;0.00;0.00;0.62;0.00;0.00;0.62;2.50;1.33;;;24.20;27.70;;;;;;2261508;61;20414;-63
2021/10/13 05:01:26;0.00;0.00;0.62;0.00;0.00;0.62;1.57;1.37;;;24.10;27.60;;;;;;2261211;61;20389;-62
2021/10/13 05:04:12;0.00;0.00;0.62;0.00;0.00;0.62;2.40;1.70;;;24.10;27.60;;;;;;2261584;61;20417;-63
2021/10/13 05:06:57;0.00;0.00;0.62;0.00;0.00;0.62;2.13;1.33;;;24.10;27.60;;;;;;2260937;61;20381;-62
2021/10/13 05:09:41;0.00;0.00;0.62;0.00;0.00;0.62;1.90;1.33;;;24.10;27.60;;;;;;2261468;61;20416;-62
2021/10/13 05:12:26;0.00;0.00;0.62;0.00;0.00;0.62;1.90;1.40;;;24.10;27.60;;;;;;2258807;61;20358;-63
2021/10/13 05:15:10;0.00;0.00;0.62;0.00;0.00;0.62;2.27;1.80;;;24.00;27.60;;;;;;2261450;61;20377;-62
2021/10/13 05:17:55;0.00;0.00;0.62;0.00;0.00;0.62;2.47;1.60;;;24.10;27.70;;;;;;2262014;61;20680;-63
2021/10/13 05:20:41;0.00;0.00;0.62;0.00;0.00;0.62;2.33;1.80;;;24.00;27.60;;;;;;2262289;61;20582;-62
2021/10/13 05:23:25;0.00;0.00;0.62;0.00;0.00;0.62;2.40;1.60;;;24.00;27.60;;;;;;2261766;61;20497;-63
2021/10/13 05:26:10;0.00;0.00;0.62;0.00;0.00;0.62;1.87;1.43;;;24.00;27.60;;;;;;2262099;61;20389;-62
2021/10/13 05:28:55;0.00;0.00;0.62;0.00;0.00;0.62;1.93;1.47;;;24.00;27.60;;;;;;2261987;61;20389;-62
2021/10/13 05:31:39;0.00;0.00;0.62;0.00;0.00;0.62;2.17;1.50;;;24.00;27.60;;;;;;2262024;61;20442;-62
2021/10/13 05:34:23;0.00;0.00;0.62;0.00;0.00;0.62;2.20;1.60;;;24.00;27.60;;;;;;2262173;61;20362;-63
2021/10/13 05:37:09;0.00;0.00;0.62;0.00;0.00;0.62;1.77;1.37;;;24.00;27.70;;;;;;2261236;61;20665;-63
2021/10/13 05:39:54;0.00;0.00;0.62;0.00;0.00;0.62;2.40;1.90;;;23.90;27.60;;;;;;2262066;61;20362;-63
2021/10/13 05:42:39;0.00;0.00;0.62;0.00;0.00;0.62;3.37;1.80;;;23.90;27.60;;;;;;2262241;61;20362;-64
2021/10/13 05:45:23;0.00;0.00;0.62;0.00;0.00;0.62;3.47;2.47;;;23.90;27.60;;;;;;2261638;61;20767;-63
2021/10/13 05:48:08;0.00;0.00;0.62;0.00;0.00;0.62;2.90;2.00;;;23.90;27.60;;;;;;2258786;61;20385;-62
2021/10/13 05:50:53;0.00;0.00;0.62;0.00;0.00;0.62;3.47;2.60;;;23.90;27.60;;;;;;2261947;61;20489;-63
2021/10/13 05:53:39;0.00;0.00;0.62;0.00;0.00;0.62;3.53;2.57;;;23.80;27.60;;;;;;2261994;61;20353;-63
2021/10/13 05:56:23;0.00;0.00;0.62;0.00;0.00;0.62;2.60;1.97;;;23.90;27.70;;;;;;2262086;61;20362;-62
2021/10/13 05:59:08;0.00;0.00;0.62;0.00;0.00;0.62;2.70;2.33;;;23.90;27.70;;;;;;2261283;61;20402;-62
2021/10/13 06:01:52;0.00;0.00;0.62;0.00;0.00;0.62;2.30;1.87;;;23.80;27.60;;;;;;2262082;61;20362;-63
2021/10/13 06:04:36;0.00;0.00;0.62;0.00;0.00;0.62;2.63;2.20;;;23.80;27.60;;;;;;2258984;61;20793;-63
2021/10/13 06:07:21;0.00;0.00;0.62;0.00;0.00;0.62;3.77;2.03;;;23.80;27.70;;;;;;2261237;61;20409;-63
2021/10/13 06:10:08;0.00;0.00;0.62;0.00;0.00;0.62;4.70;2.33;;;23.80;27.70;;;;;;2261999;61;20404;-63
2021/10/13 06:12:53;0.00;0.00;0.62;0.00;0.00;0.62;3.23;2.20;;;23.80;27.70;;;;;;2261899;61;20362;-63
2021/10/13 06:15:38;0.00;0.00;0.62;0.00;0.00;0.62;2.47;1.93;;;23.80;27.70;;;;;;2261732;61;20748;-62
2021/10/13 06:18:23;0.00;0.00;0.62;0.00;0.00;0.62;2.37;2.00;;;23.80;27.70;;;;;;2261974;61;20377;-63
2021/10/13 06:21:07;0.00;0.00;0.62;0.00;0.00;0.62;2.23;1.60;;;23.80;27.70;;;;;;2261680;61;20433;-65
2021/10/13 06:23:52;0.00;0.00;0.62;0.00;0.00;0.62;1.93;1.70;;;23.80;27.80;;;;;;2261860;61;20442;-67
2021/10/13 06:26:38;0.00;0.00;0.62;0.00;0.00;0.62;3.30;2.20;;;23.80;27.80;;;;;;2262024;61;20346;-65
2021/10/13 06:29:22;0.00;0.00;0.62;0.00;0.00;0.62;3.10;2.30;;;23.70;27.70;;;;;;2261366;61;20626;-65
2021/10/13 06:32:07;0.00;0.00;0.62;0.00;0.00;0.62;2.77;2.03;;;23.70;27.80;;;;;;2258386;61;20434;-65
2021/10/13 06:34:51;0.00;0.00;0.62;0.00;0.00;0.62;3.83;1.97;;;23.70;27.80;;;;;;2261900;61;20606;-65
2021/10/13 06:37:36;0.00;0.00;0.62;0.00;0.00;0.62;3.73;2.30;;;23.70;27.80;;;;;;2261650;61;20389;-66
2021/10/13 06:40:20;0.00;0.00;0.62;0.00;0.00;0.62;3.83;1.80;;;23.70;27.80;;;;;;2261856;61;20389;-69
2021/10/13 06:43:07;0.00;0.00;0.62;0.00;0.00;0.62;2.97;1.60;;;23.70;27.80;;;;;;2261514;61;20386;-63
2021/10/13 06:45:51;0.00;0.00;0.62;0.00;0.00;0.62;2.20;1.83;;;23.70;27.90;;;;;;2261897;61;20366;-66
2021/10/13 06:48:36;0.00;0.00;0.62;0.00;0.00;0.62;2.77;1.87;;;23.70;27.80;;;;;;2262112;61;20382;-63
2021/10/13 06:51:20;0.00;0.00;0.62;0.00;0.00;0.62;2.60;1.97;;;23.70;27.90;;;;;;2261330;61;20377;-62
2021/10/13 06:54:05;0.00;0.00;0.62;0.00;0.00;0.62;2.30;1.60;;;23.70;27.90;;;;;;2261787;61;20413;-64
2021/10/13 06:56:49;0.00;0.00;0.62;0.00;0.00;0.62;3.17;1.80;;;23.70;27.90;;;;;;2262099;61;20713;-62
2021/10/13 06:59:35;0.00;0.00;0.62;0.00;0.00;0.62;2.43;1.97;;;23.70;27.90;;;;;;2261409;61;20370;-65
2021/10/13 07:02:20;0.00;0.00;0.62;0.00;0.00;0.62;3.37;2.40;;;23.70;27.90;;;;;;2261649;61;20378;-65
2021/10/13 07:05:05;0.00;0.00;0.62;0.00;0.00;0.62;3.90;2.10;;;23.70;27.90;;;;;;2261887;61;20604;-67
2021/10/13 07:07:50;0.00;0.00;0.62;0.00;0.00;0.62;3.10;2.10;;;23.70;28.00;;;;;;2261559;61;20409;-67
2021/10/13 07:10:35;0.00;0.00;0.62;0.00;0.00;0.62;2.30;1.60;;;23.70;27.90;;;;;;2262161;61;20362;-65
2021/10/13 07:13:19;0.00;0.00;0.62;0.00;0.00;0.62;3.37;1.70;;;23.70;27.90;;;;;;2261157;61;20373;-64
2021/10/13 07:16:06;0.00;0.00;0.62;0.00;0.00;0.62;5.90;2.40;;;23.70;27.90;;;;;;2261638;61;20362;-66
2021/10/13 07:18:50;0.00;0.00;0.62;0.00;0.00;0.62;4.07;1.63;;;23.70;27.90;;;;;;2262184;61;20389;-65
2021/10/13 07:21:34;0.00;0.00;0.62;0.00;0.00;0.62;1.83;1.50;;;23.70;27.90;;;;;;2261472;61;20706;-65
2021/10/13 07:24:19;0.00;0.00;0.62;0.00;0.00;0.62;3.43;1.80;;;23.70;27.90;;;;;;2261862;61;20390;-64
2021/10/13 07:27:04;0.00;0.00;0.62;0.00;0.00;0.62;3.70;1.70;;;23.70;28.00;;;;;;2261599;61;20374;-64
2021/10/13 07:29:56;0.00;0.00;0.62;0.00;0.00;0.62;2.40;1.60;;;23.70;28.00;;;;;;2261793;61;20362;-65
2021/10/13 07:32:42;0.00;0.00;0.62;0.00;0.00;0.62;3.40;2.00;;;23.70;28.00;;;;;;2262092;61;20362;-65
2021/10/13 07:35:30;0.00;0.00;0.62;0.00;0.00;0.62;6.23;1.87;;;23.70;28.00;;;;;;2260749;61;20366;-65
2021/10/13 07:38:16;0.00;0.00;0.62;0.00;0.00;0.62;2.20;1.73;;;23.70;28.00;;;;;;2261716;61;20412;-66
2021/10/13 07:41:00;0.00;0.00;0.62;0.00;0.00;0.62;2.23;1.60;;;23.80;28.10;;;;;;2261996;61;20385;-64
2021/10/13 07:43:46;0.00;0.00;0.62;0.00;0.00;0.62;2.97;1.80;;;23.80;28.10;;;;;;2261242;61;20796;-65
2021/10/13 07:46:30;0.00;0.00;0.62;0.00;0.00;0.62;2.27;1.73;;;23.80;28.10;;;;;;2261607;61;20357;-65
2021/10/13 07:49:16;0.00;0.00;0.62;0.00;0.00;0.62;2.27;1.87;;;23.80;28.20;;;;;;2261556;61;20397;-65
2021/10/13 07:52:01;0.00;0.00;0.62;0.00;0.00;0.62;2.20;1.80;;;23.70;28.10;;;;;;2261680;61;20585;-64
2021/10/13 07:54:46;0.00;0.00;0.62;0.00;0.00;0.62;3.40;1.93;;;23.80;28.10;;;;;;2261956;61;20442;-64
2021/10/13 07:57:31;0.00;0.00;0.62;0.00;0.00;0.62;2.97;1.50;;;23.80;28.10;;;;;;2260755;61;20398;-65
2021/10/13 08:00:20;0.00;0.00;0.62;0.00;0.00;0.62;3.10;1.53;;;23.80;28.20;;;;;;2261668;61;20427;-64
2021/10/13 08:03:04;0.00;0.00;0.62;0.00;0.00;0.62;2.27;1.43;;;23.80;28.20;;;;;;2261796;61;20386;-66
2021/10/13 08:05:50;0.00;0.00;0.62;0.00;0.00;0.62;2.20;1.50;;;23.80;28.20;;;;;;2260982;61;20394;-62
2021/10/13 08:08:35;0.00;0.00;0.62;0.00;0.00;0.62;2.13;1.57;;;23.80;28.30;;;;;;2261588;61;20745;-62
2021/10/13 08:11:19;0.00;0.00;0.62;0.00;0.00;0.62;3.90;1.63;;;23.80;28.30;;;;;;2261531;61;20428;-63
2021/10/13 08:14:04;0.00;0.00;0.62;0.00;0.00;0.62;2.17;1.47;;;23.80;28.30;;;;;;2261376;61;20389;-63
2021/10/13 08:16:48;0.00;0.00;0.62;0.00;0.00;0.62;5.47;1.57;;;23.90;28.30;;;;;;2261527;61;20398;-64
2021/10/13 08:19:33;0.00;0.00;0.62;0.00;0.00;0.62;4.40;2.00;;;23.90;28.80;;;;;;2261041;61;20361;-63
2021/10/13 08:22:19;0.00;0.00;0.62;0.00;0.00;0.62;2.83;1.70;;;23.90;28.30;;;;;;2261750;61;20413;-64
2021/10/13 08:25:05;0.00;0.00;0.62;0.00;0.00;0.62;4.33;2.17;;;24.00;28.30;;;;;;2261711;61;20469;-63
2021/10/13 08:27:50;0.00;0.00;0.62;0.00;0.00;0.62;2.57;1.63;;;24.00;28.30;;;;;;2261005;61;20492;-62
2021/10/13 08:30:34;0.00;0.00;0.62;0.00;0.00;0.62;2.27;1.37;;;24.00;28.30;;;;;;2261679;61;20381;-64
2021/10/13 08:33:19;0.00;0.00;0.62;0.00;0.00;0.62;3.63;1.90;;;24.00;28.30;;;;;;2261460;61;20412;-64
2021/10/13 08:36:04;0.00;0.00;0.62;0.00;0.00;0.62;4.27;2.10;;;24.00;28.30;;;;;;2261245;61;20438;-64
2021/10/13 08:38:50;0.00;0.00;0.62;0.00;0.00;0.62;5.50;1.67;;;24.00;28.30;;;;;;2261499;61;20385;-63
2021/10/13 08:41:34;0.00;0.00;0.62;0.00;0.00;0.62;3.43;2.10;;;24.00;28.30;;;;;;2261266;61;20386;-63
2021/10/13 08:44:19;0.00;0.00;0.62;0.00;0.00;0.62;3.20;1.97;;;24.10;28.30;;;;;;2261614;61;20536;-63
2021/10/13 08:47:03;0.00;0.00;0.62;0.00;0.00;0.62;2.47;2.10;;;24.10;28.30;;;;;;2261698;61;20401;-63
2021/10/13 08:49:51;0.00;0.00;0.62;0.00;0.00;0.62;3.43;1.70;;;24.10;28.20;;;;;;2261754;61;20381;-63
2021/10/13 08:52:35;0.00;0.00;0.62;0.00;0.00;0.62;2.40;1.60;;;24.10;28.20;;;;;;2262260;61;20377;-63
2021/10/13 08:55:21;0.00;0.00;0.62;0.00;0.00;0.62;3.17;1.90;;;24.10;28.20;;;;;;2262160;61;20358;-63
2021/10/13 08:58:12;0.00;0.00;0.62;0.00;0.00;0.62;2.30;1.70;;;24.10;28.20;;;;;;2261853;61;20605;-63
2021/10/13 09:01:12;0.00;0.00;0.62;0.00;0.00;0.62;2.40;1.47;;;24.10;28.20;;;;;;2262176;61;20361;-63
2021/10/13 09:03:58;0.00;0.00;0.62;0.00;0.00;0.62;4.70;1.40;;;24.10;28.20;;;;;;2258594;61;20617;-62
2021/10/13 09:06:43;0.00;0.00;0.62;0.00;0.00;0.62;4.57;1.73;;;24.20;28.20;;;;;;2261979;61;20396;-62
2021/10/13 09:09:27;0.00;0.00;0.62;0.00;0.00;0.62;2.83;2.03;;;24.20;28.20;;;;;;2262429;61;20377;-63
2021/10/13 09:12:13;0.00;0.00;0.62;0.00;0.00;0.62;2.63;1.70;;;24.20;28.20;;;;;;2261627;61;20380;-63
2021/10/13 09:15:11;0.00;0.00;0.62;0.00;0.00;0.62;2.10;1.60;;;24.20;28.20;;;;;;2262003;61;20354;-63
2021/10/13 09:17:59;0.00;0.00;0.62;0.00;0.00;0.62;2.33;1.53;;;24.20;28.20;;;;;;2262082;61;20374;-64
2021/10/13 09:20:50;0.00;0.00;0.62;0.00;0.00;0.62;1.73;1.27;;;24.20;28.20;;;;;;2261874;61;20357;-63
2021/10/13 09:23:35;0.00;0.00;0.62;0.00;0.00;0.62;3.30;1.53;;;24.20;28.20;;;;;;2262330;61;20369;-63
2021/10/13 09:26:20;0.00;0.00;0.62;0.00;0.00;0.62;2.40;1.70;;;24.20;28.20;;;;;;2261305;61;20576;-63
2021/10/13 09:29:07;0.00;0.00;0.62;0.00;0.00;0.62;2.13;1.73;;;24.20;28.30;;;;;;2262147;61;20385;-63
2021/10/13 09:32:00;0.00;0.00;0.62;0.00;0.00;0.62;3.20;1.63;;;24.20;28.20;;;;;;2262407;61;20438;-63
2021/10/13 09:34:45;0.00;0.00;0.62;0.00;0.00;0.62;3.33;1.60;;;24.20;28.20;;;;;;2261601;61;20557;-63
2021/10/13 09:37:43;0.00;0.00;0.62;0.00;0.00;0.62;2.37;1.47;;;24.30;28.30;;;;;;2262041;61;20396;-63
2021/10/13 09:40:29;0.00;0.00;0.62;0.00;0.00;0.62;2.10;1.40;;;24.30;28.30;;;;;;2261973;61;20359;-63
2021/10/13 09:43:32;0.00;0.00;0.62;0.00;0.00;0.62;3.80;1.80;;;24.30;28.30;;;;;;2261903;61;20389;-63
2021/10/13 09:46:20;0.00;0.00;0.62;0.00;0.00;0.62;1.60;1.13;;;24.30;28.30;;;;;;2262194;61;20578;-63
2021/10/13 09:49:05;0.00;0.00;0.62;0.00;0.00;0.62;2.00;1.53;;;24.30;28.40;;;;;;2261405;61;20457;-63
2021/10/13 09:51:50;0.00;0.00;0.62;0.00;0.00;0.62;2.17;1.43;;;24.40;28.40;;;;;;2262152;61;20362;-63
2021/10/13 09:54:35;0.00;0.00;0.62;0.00;0.00;0.62;1.67;1.40;;;24.40;28.40;;;;;;2261917;61;20358;-64
2021/10/13 09:57:23;0.00;0.00;0.62;0.00;0.00;0.62;1.80;1.10;;;24.40;28.40;;;;;;2261572;61;20409;-63
2021/10/13 10:00:13;0.00;0.00;0.62;0.00;0.00;0.62;2.50;1.30;;;24.40;28.40;;;;;;2261940;61;20438;-63
2021/10/13 10:03:02;0.00;0.00;0.62;0.00;0.00;0.62;3.00;1.50;;;24.50;28.50;;;;;;2261682;61;20400;-63
2021/10/13 10:05:48;0.00;0.00;0.62;0.00;0.00;0.62;2.00;1.47;;;24.50;28.50;;;;;;2261987;61;20734;-64
2021/10/13 10:09:03;0.00;0.00;0.62;0.00;0.00;0.62;2.10;1.33;;;24.50;28.50;;;;;;2262220;61;20762;-64
2021/10/13 10:12:00;0.00;0.00;0.62;0.00;0.00;0.62;2.33;1.60;;;24.60;28.50;;;;;;2261722;61;20363;-64
2021/10/13 10:14:45;0.00;0.00;0.62;0.00;0.00;0.62;3.53;1.70;;;24.60;28.50;;;;;;2261998;61;20358;-64
2021/10/13 10:17:40;0.00;0.00;0.62;0.00;0.00;0.62;1.60;1.30;;;24.60;28.50;;;;;;2261743;61;20601;-64
2021/10/13 10:20:39;0.00;0.00;0.62;0.00;0.00;0.62;2.10;1.60;;;24.70;28.60;;;;;;2261940;61;20365;-64
2021/10/13 10:23:30;0.00;0.00;0.62;0.00;0.00;0.62;2.30;1.53;;;24.70;28.50;;;;;;2262143;61;20394;-62
2021/10/13 10:26:34;0.00;0.00;0.62;0.00;0.00;0.62;2.00;1.20;;;24.70;28.50;;;;;;2261241;61;20362;-63
2021/10/13 10:29:18;0.00;0.00;0.62;0.00;0.00;0.62;1.60;1.30;;;24.80;28.60;;;;;;2261960;61;20382;-64
2021/10/13 10:32:14;0.00;0.00;0.62;0.00;0.00;0.62;2.73;1.70;;;24.80;28.60;;;;;;2261970;61;20362;-63
2021/10/13 10:35:11;0.00;0.00;0.62;0.00;0.00;0.62;2.60;1.37;;;24.90;28.60;;;;;;2261864;61;20350;-64
2021/10/13 10:38:05;0.00;0.00;0.62;0.00;0.00;0.62;2.23;1.40;;;24.90;28.60;;;;;;2262155;61;20449;-64
2021/10/13 10:40:50;0.00;0.00;0.62;0.00;0.00;0.62;2.10;1.20;;;24.90;28.60;;;;;;2261309;61;20603;-64
2021/10/13 10:43:34;0.00;0.00;0.62;0.00;0.00;0.62;3.10;1.70;;;25.00;28.60;;;;;;2261848;61;20422;-64
2021/10/13 10:46:19;0.00;0.00;0.62;0.00;0.00;0.62;2.60;1.30;;;25.00;28.60;;;;;;2261856;61;20573;-64
2021/10/13 10:49:04;0.00;0.00;0.62;0.00;0.00;0.62;2.23;1.50;;;25.00;28.50;;;;;;2261528;61;20458;-64
2021/10/13 10:52:02;0.00;0.00;0.62;0.00;0.00;0.62;2.23;1.40;;;25.10;28.50;;;;;;2261997;61;20362;-64
2021/10/13 10:54:52;0.00;0.00;0.62;0.00;0.00;0.62;2.27;1.30;;;25.10;28.50;;;;;;2261367;61;20702;-64
2021/10/13 10:57:44;0.00;0.00;0.62;0.00;0.00;0.62;2.83;1.30;;;25.10;28.50;;;;;;2261693;61;20502;-64
2021/10/13 11:00:36;0.00;0.00;0.62;0.00;0.00;0.62;2.73;1.40;;;25.10;28.40;;;;;;2262101;61;20361;-64